Terminal Aerodrome Forecast
Issued by NWS Wilmington, NC

Home | Current Version | Previous Version | Text Only | Print | Product List | Glossary On
Versions: 1 2 3 4 5 6 7 8 9 10 11 12 13 14 15 16 17 18 19 20
000
FTUS42 KILM 141100
TAFMYR
TAF
KMYR 141124Z 1412/1512 26006KT P6SM SCT015
     FM141600 20008KT P6SM VCTS SCT040CB
     FM141900 19014G20KT P6SM SCT050 SCT120
     FM150800 24008KT P6SM VCSH SCT050 SCT100=

USA.gov is the U.S. government's official web portal to all federal, state and local government web resources and services.